sensor_id;sensor_type;location;lat;lon;timestamp;temperature;humidity
53675;DHT22;39574;50.534;8.500;2022-12-10T00:05:01;2.1;99.9
53675;DHT22;39574;50.534;8.500;2022-12-10T00:14:10;2.1;99.9
53675;DHT22;39574;50.534;8.500;2022-12-10T00:19:24;2.1;99.9
53675;DHT22;39574;50.534;8.500;2022-12-10T00:24:24;2.0;99.9
53675;DHT22;39574;50.534;8.500;2022-12-10T00:29:32;2.0;99.9
53675;DHT22;39574;50.534;8.500;2022-12-10T00:34:35;2.0;99.9
53675;DHT22;39574;50.534;8.500;2022-12-10T00:39:46;2.0;99.9
53675;DHT22;39574;50.534;8.500;2022-12-10T00:44:49;2.0;99.9
53675;DHT22;39574;50.534;8.500;2022-12-10T00:54:13;1.9;99.9
53675;DHT22;39574;50.534;8.500;2022-12-10T00:59:24;2.0;99.9
53675;DHT22;39574;50.534;8.500;2022-12-10T01:04:28;2.0;99.9
53675;DHT22;39574;50.534;8.500;2022-12-10T01:09:37;1.9;99.9
53675;DHT22;39574;50.534;8.500;2022-12-10T01:14:39;1.8;99.9
53675;DHT22;39574;50.534;8.500;2022-12-10T01:23:57;1.7;99.9
53675;DHT22;39574;50.534;8.500;2022-12-10T01:29:03;1.7;99.9
53675;DHT22;39574;50.534;8.500;2022-12-10T01:34:15;1.7;99.9
53675;DHT22;39574;50.534;8.500;2022-12-10T01:39:17;1.7;99.9
53675;DHT22;39574;50.534;8.500;2022-12-10T01:45:05;1.7;99.9
53675;DHT22;39574;50.534;8.500;2022-12-10T01:53:45;1.8;99.9
53675;DHT22;39574;50.534;8.500;2022-12-10T01:58:53;1.8;99.9
53675;DHT22;39574;50.534;8.500;2022-12-10T02:03:56;1.6;99.9
53675;DHT22;39574;50.534;8.500;2022-12-10T02:09:04;1.6;99.9
53675;DHT22;39574;50.534;8.500;2022-12-10T02:14:04;1.5;99.9
53675;DHT22;39574;50.534;8.500;2022-12-10T02:19:07;1.5;99.9
53675;DHT22;39574;50.534;8.500;2022-12-10T02:24:18;1.5;99.9
53675;DHT22;39574;50.534;8.500;2022-12-10T02:33:46;1.5;99.9
53675;DHT22;39574;50.534;8.500;2022-12-10T02:38:57;1.5;99.9
53675;DHT22;39574;50.534;8.500;2022-12-10T02:43:59;1.6;99.9
53675;DHT22;39574;50.534;8.500;2022-12-10T02:49:06;1.6;99.9
53675;DHT22;39574;50.534;8.500;2022-12-10T02:54:33;1.7;99.9
53675;DHT22;39574;50.534;8.500;2022-12-10T03:03:21;1.7;99.9
53675;DHT22;39574;50.534;8.500;2022-12-10T03:08:38;1.7;99.9
53675;DHT22;39574;50.534;8.500;2022-12-10T03:13:47;1.8;99.9
53675;DHT22;39574;50.534;8.500;2022-12-10T03:18:47;1.8;99.9
53675;DHT22;39574;50.534;8.500;2022-12-10T03:24:01;1.7;99.9
53675;DHT22;39574;50.534;8.500;2022-12-10T03:33:26;1.8;99.9
53675;DHT22;39574;50.534;8.500;2022-12-10T03:38:39;1.9;99.9
53675;DHT22;39574;50.534;8.500;2022-12-10T03:43:49;1.9;99.9
53675;DHT22;39574;50.534;8.500;2022-12-10T03:48:50;1.9;99.9
53675;DHT22;39574;50.534;8.500;2022-12-10T03:58:11;1.8;99.9
53675;DHT22;39574;50.534;8.500;2022-12-10T04:03:18;1.6;99.9
53675;DHT22;39574;50.534;8.500;2022-12-10T04:08:19;1.4;99.9
53675;DHT22;39574;50.534;8.500;2022-12-10T04:13:26;1.4;99.9
53675;DHT22;39574;50.534;8.500;2022-12-10T04:18:41;1.5;99.9
53675;DHT22;39574;50.534;8.500;2022-12-10T04:27:52;1.6;99.9
53675;DHT22;39574;50.534;8.500;2022-12-10T04:32:54;1.6;99.9
53675;DHT22;39574;50.534;8.500;2022-12-10T04:38:06;1.6;99.9
53675;DHT22;39574;50.534;8.500;2022-12-10T04:43:18;1.7;99.9
53675;DHT22;39574;50.534;8.500;2022-12-10T04:48:22;1.7;99.9
53675;DHT22;39574;50.534;8.500;2022-12-10T04:53:30;1.8;99.9
53675;DHT22;39574;50.534;8.500;2022-12-10T04:58:38;1.7;99.9
53675;DHT22;39574;50.534;8.500;2022-12-10T05:07:41;1.7;99.9
53675;DHT22;39574;50.534;8.500;2022-12-10T05:13:09;1.7;99.9
53675;DHT22;39574;50.534;8.500;2022-12-10T05:18:11;1.8;99.9
53675;DHT22;39574;50.534;8.500;2022-12-10T05:23:12;1.7;99.9
53675;DHT22;39574;50.534;8.500;2022-12-10T05:28:24;1.7;99.9
53675;DHT22;39574;50.534;8.500;2022-12-10T05:37:50;1.7;99.9
53675;DHT22;39574;50.534;8.500;2022-12-10T05:43:03;1.8;99.9
53675;DHT22;39574;50.534;8.500;2022-12-10T05:48:17;1.9;99.9
53675;DHT22;39574;50.534;8.500;2022-12-10T05:53:19;1.9;99.9
53675;DHT22;39574;50.534;8.500;2022-12-10T06:02:43;1.8;99.9
53675;DHT22;39574;50.534;8.500;2022-12-10T06:07:44;1.7;99.9
53675;DHT22;39574;50.534;8.500;2022-12-10T06:12:52;1.8;99.9
53675;DHT22;39574;50.534;8.500;2022-12-10T06:17:56;1.9;99.9
53675;DHT22;39574;50.534;8.500;2022-12-10T06:23:04;2.0;99.9
53675;DHT22;39574;50.534;8.500;2022-12-10T06:28:06;2.1;99.9
53675;DHT22;39574;50.534;8.500;2022-12-10T06:33:08;2.0;99.9
53675;DHT22;39574;50.534;8.500;2022-12-10T06:42:32;2.0;99.9
53675;DHT22;39574;50.534;8.500;2022-12-10T06:47:46;1.9;99.9
53675;DHT22;39574;50.534;8.500;2022-12-10T06:52:59;1.8;99.9
53675;DHT22;39574;50.534;8.500;2022-12-10T07:02:26;1.9;99.9
53675;DHT22;39574;50.534;8.500;2022-12-10T07:07:37;1.9;99.9
53675;DHT22;39574;50.534;8.500;2022-12-10T07:12:52;1.9;99.9
53675;DHT22;39574;50.534;8.500;2022-12-10T07:22:20;1.7;99.9
53675;DHT22;39574;50.534;8.500;2022-12-10T07:27:35;1.6;99.9
53675;DHT22;39574;50.534;8.500;2022-12-10T07:32:46;1.5;99.9
53675;DHT22;39574;50.534;8.500;2022-12-10T07:42:13;1.3;99.9
53675;DHT22;39574;50.534;8.500;2022-12-10T07:47:27;1.2;99.9
53675;DHT22;39574;50.534;8.500;2022-12-10T07:52:30;1.1;99.9
53675;DHT22;39574;50.534;8.500;2022-12-10T07:57:42;1.1;99.9
53675;DHT22;39574;50.534;8.500;2022-12-10T08:07:07;1.2;99.9
53675;DHT22;39574;50.534;8.500;2022-12-10T08:12:19;1.3;99.9
53675;DHT22;39574;50.534;8.500;2022-12-10T08:17:22;1.4;99.9
53675;DHT22;39574;50.534;8.500;2022-12-10T08:22:32;1.4;99.9
53675;DHT22;39574;50.534;8.500;2022-12-10T08:32:00;1.4;99.9
53675;DHT22;39574;50.534;8.500;2022-12-10T08:37:02;1.5;99.9
53675;DHT22;39574;50.534;8.500;2022-12-10T08:42:15;1.5;99.9
53675;DHT22;39574;50.534;8.500;2022-12-10T08:47:26;1.5;99.9
53675;DHT22;39574;50.534;8.500;2022-12-10T08:56:52;1.5;99.9
53675;DHT22;39574;50.534;8.500;2022-12-10T09:07:27;1.6;99.9
53675;DHT22;39574;50.534;8.500;2022-12-10T09:17:01;1.6;99.9
53675;DHT22;39574;50.534;8.500;2022-12-10T09:21:59;1.6;99.9
53675;DHT22;39574;50.534;8.500;2022-12-10T09:27:13;1.6;99.9
53675;DHT22;39574;50.534;8.500;2022-12-10T09:36:49;1.8;99.9
53675;DHT22;39574;50.534;8.500;2022-12-10T09:41:56;1.8;99.9
53675;DHT22;39574;50.534;8.500;2022-12-10T09:46:58;1.8;99.9
53675;DHT22;39574;50.534;8.500;2022-12-10T09:52:05;1.8;99.9
53675;DHT22;39574;50.534;8.500;2022-12-10T10:01:49;1.7;99.9
53675;DHT22;39574;50.534;8.500;2022-12-10T10:07:03;1.6;99.9
53675;DHT22;39574;50.534;8.500;2022-12-10T10:12:05;1.7;99.9
53675;DHT22;39574;50.534;8.500;2022-12-10T10:21:41;1.6;99.9
53675;DHT22;39574;50.534;8.500;2022-12-10T10:26:44;1.6;99.9
53675;DHT22;39574;50.534;8.500;2022-12-10T10:32:10;1.6;99.9
53675;DHT22;39574;50.534;8.500;2022-12-10T10:41:04;1.6;99.9
53675;DHT22;39574;50.534;8.500;2022-12-10T10:46:09;1.7;99.9
53675;DHT22;39574;50.534;8.500;2022-12-10T10:51:31;1.9;99.9
53675;DHT22;39574;50.534;8.500;2022-12-10T10:56:37;2.0;99.9
53675;DHT22;39574;50.534;8.500;2022-12-10T11:01:47;2.0;99.9
53675;DHT22;39574;50.534;8.500;2022-12-10T11:06:47;2.0;99.9
53675;DHT22;39574;50.534;8.500;2022-12-10T11:16:12;1.9;99.9
53675;DHT22;39574;50.534;8.500;2022-12-10T11:21:22;1.8;99.9
53675;DHT22;39574;50.534;8.500;2022-12-10T11:26:39;1.8;99.9
53675;DHT22;39574;50.534;8.500;2022-12-10T11:31:43;1.9;99.9
53675;DHT22;39574;50.534;8.500;2022-12-10T11:40:59;2.0;99.9
53675;DHT22;39574;50.534;8.500;2022-12-10T11:46:07;2.1;99.9
53675;DHT22;39574;50.534;8.500;2022-12-10T11:51:19;2.2;99.9
53675;DHT22;39574;50.534;8.500;2022-12-10T11:56:31;2.1;99.9
53675;DHT22;39574;50.534;8.500;2022-12-10T12:01:39;2.0;99.9
53675;DHT22;39574;50.534;8.500;2022-12-10T12:11:10;1.8;99.9
53675;DHT22;39574;50.534;8.500;2022-12-10T12:16:09;1.8;99.9
53675;DHT22;39574;50.534;8.500;2022-12-10T12:21:22;1.8;99.9
53675;DHT22;39574;50.534;8.500;2022-12-10T12:26:25;1.6;99.9
53675;DHT22;39574;50.534;8.500;2022-12-10T12:35:33;1.6;99.9
53675;DHT22;39574;50.534;8.500;2022-12-10T12:40:48;1.3;99.9
53675;DHT22;39574;50.534;8.500;2022-12-10T12:46:00;1.3;99.9
53675;DHT22;39574;50.534;8.500;2022-12-10T12:51:14;1.3;99.9
53675;DHT22;39574;50.534;8.500;2022-12-10T12:56:15;1.3;99.9
53675;DHT22;39574;50.534;8.500;2022-12-10T13:05:38;1.3;99.9
53675;DHT22;39574;50.534;8.500;2022-12-10T13:10:50;1.3;99.9
53675;DHT22;39574;50.534;8.500;2022-12-10T13:16:43;1.2;99.9
53675;DHT22;39574;50.534;8.500;2022-12-10T13:21:36;1.1;99.9
53675;DHT22;39574;50.534;8.500;2022-12-10T13:26:21;1.1;99.9
53675;DHT22;39574;50.534;8.500;2022-12-10T13:35:49;1.2;99.9
53675;DHT22;39574;50.534;8.500;2022-12-10T13:40:49;1.1;99.9
53675;DHT22;39574;50.534;8.500;2022-12-10T13:46:19;1.2;99.9
53675;DHT22;39574;50.534;8.500;2022-12-10T13:55:20;1.4;99.9
53675;DHT22;39574;50.534;8.500;2022-12-10T14:00:23;1.6;99.9
53675;DHT22;39574;50.534;8.500;2022-12-10T14:05:39;1.5;99.9
53675;DHT22;39574;50.534;8.500;2022-12-10T14:10:37;1.5;99.9
53675;DHT22;39574;50.534;8.500;2022-12-10T14:15:52;1.4;99.9
53675;DHT22;39574;50.534;8.500;2022-12-10T14:25:15;1.3;99.9
53675;DHT22;39574;50.534;8.500;2022-12-10T14:30:15;1.2;99.9
53675;DHT22;39574;50.534;8.500;2022-12-10T14:35:25;1.1;99.9
53675;DHT22;39574;50.534;8.500;2022-12-10T14:40:25;1.1;99.9
53675;DHT22;39574;50.534;8.500;2022-12-10T14:45:26;1.0;99.9
53675;DHT22;39574;50.534;8.500;2022-12-10T14:50:31;1.1;99.9
53675;DHT22;39574;50.534;8.500;2022-12-10T14:55:34;1.0;99.9
53675;DHT22;39574;50.534;8.500;2022-12-10T15:00:35;1.0;99.9
53675;DHT22;39574;50.534;8.500;2022-12-10T15:09:54;1.0;99.9
53675;DHT22;39574;50.534;8.500;2022-12-10T15:15:04;1.1;99.9
53675;DHT22;39574;50.534;8.500;2022-12-10T15:20:20;1.1;99.9
53675;DHT22;39574;50.534;8.500;2022-12-10T15:25:27;1.0;99.9
53675;DHT22;39574;50.534;8.500;2022-12-10T15:30:38;0.9;99.9
53675;DHT22;39574;50.534;8.500;2022-12-10T15:39:54;0.8;99.9
53675;DHT22;39574;50.534;8.500;2022-12-10T15:45:11;0.8;99.9
53675;DHT22;39574;50.534;8.500;2022-12-10T15:50:04;0.7;99.9
53675;DHT22;39574;50.534;8.500;2022-12-10T15:55:05;0.8;99.9
53675;DHT22;39574;50.534;8.500;2022-12-10T16:00:18;0.8;99.9
53675;DHT22;39574;50.534;8.500;2022-12-10T16:09:51;0.9;99.9
53675;DHT22;39574;50.534;8.500;2022-12-10T16:14:56;0.8;99.9
53675;DHT22;39574;50.534;8.500;2022-12-10T16:19:57;0.8;99.9
53675;DHT22;39574;50.534;8.500;2022-12-10T16:25:08;0.7;99.9
53675;DHT22;39574;50.534;8.500;2022-12-10T16:30:13;0.6;99.9
53675;DHT22;39574;50.534;8.500;2022-12-10T16:35:22;0.6;99.9
53675;DHT22;39574;50.534;8.500;2022-12-10T16:44:43;0.7;99.9
53675;DHT22;39574;50.534;8.500;2022-12-10T16:49:50;0.6;99.9
53675;DHT22;39574;50.534;8.500;2022-12-10T16:54:58;0.4;99.9
53675;DHT22;39574;50.534;8.500;2022-12-10T16:59:59;0.2;99.9
53675;DHT22;39574;50.534;8.500;2022-12-10T17:09:28;0.1;99.9
53675;DHT22;39574;50.534;8.500;2022-12-10T17:14:40;0.0;99.9
53675;DHT22;39574;50.534;8.500;2022-12-10T17:19:41;0.1;99.9
53675;DHT22;39574;50.534;8.500;2022-12-10T17:24:52;0.2;99.9
53675;DHT22;39574;50.534;8.500;2022-12-10T17:29:54;0.2;99.9
53675;DHT22;39574;50.534;8.500;2022-12-10T17:39:16;0.3;99.9
53675;DHT22;39574;50.534;8.500;2022-12-10T17:44:27;0.3;99.9
53675;DHT22;39574;50.534;8.500;2022-12-10T17:49:28;0.4;99.9
53675;DHT22;39574;50.534;8.500;2022-12-10T17:54:28;0.3;99.9
53675;DHT22;39574;50.534;8.500;2022-12-10T17:59:29;0.1;99.9
53675;DHT22;39574;50.534;8.500;2022-12-10T18:04:38;-0.1;99.9
53675;DHT22;39574;50.534;8.500;2022-12-10T18:09:38;-0.1;99.9
53675;DHT22;39574;50.534;8.500;2022-12-10T18:19:06;-0.1;99.9
53675;DHT22;39574;50.534;8.500;2022-12-10T18:24:07;0.0;99.9
53675;DHT22;39574;50.534;8.500;2022-12-10T18:29:21;-0.1;99.9
53675;DHT22;39574;50.534;8.500;2022-12-10T18:34:34;-0.2;99.9
53675;DHT22;39574;50.534;8.500;2022-12-10T18:43:58;-0.1;99.9
53675;DHT22;39574;50.534;8.500;2022-12-10T18:49:09;-0.1;99.9
53675;DHT22;39574;50.534;8.500;2022-12-10T18:54:11;-0.1;99.9
53675;DHT22;39574;50.534;8.500;2022-12-10T18:59:24;-0.2;99.9
53675;DHT22;39574;50.534;8.500;2022-12-10T19:08:51;-0.2;99.9
53675;DHT22;39574;50.534;8.500;2022-12-10T19:14:02;-0.4;99.9
53675;DHT22;39574;50.534;8.500;2022-12-10T19:19:17;-0.5;99.9
53675;DHT22;39574;50.534;8.500;2022-12-10T19:28:44;-0.4;99.9
53675;DHT22;39574;50.534;8.500;2022-12-10T19:33:46;-0.2;99.9
53675;DHT22;39574;50.534;8.500;2022-12-10T19:38:53;-0.1;99.9
53675;DHT22;39574;50.534;8.500;2022-12-10T19:43:53;-0.0;99.9
53675;DHT22;39574;50.534;8.500;2022-12-10T19:48:54;-0.1;99.9
53675;DHT22;39574;50.534;8.500;2022-12-10T19:54:08;-0.2;99.9
53675;DHT22;39574;50.534;8.500;2022-12-10T20:03:19;-0.2;99.9
53675;DHT22;39574;50.534;8.500;2022-12-10T20:08:30;-0.2;99.9
53675;DHT22;39574;50.534;8.500;2022-12-10T20:13:42;-0.3;99.9
53675;DHT22;39574;50.534;8.500;2022-12-10T20:18:56;-0.3;99.9
53675;DHT22;39574;50.534;8.500;2022-12-10T20:23:57;-0.3;99.9
53675;DHT22;39574;50.534;8.500;2022-12-10T20:33:25;-0.3;99.9
53675;DHT22;39574;50.534;8.500;2022-12-10T20:38:26;-0.3;99.9
53675;DHT22;39574;50.534;8.500;2022-12-10T20:43:36;-0.3;99.9
53675;DHT22;39574;50.534;8.500;2022-12-10T20:48:49;-0.3;99.9
53675;DHT22;39574;50.534;8.500;2022-12-10T20:58:28;-0.3;99.9
53675;DHT22;39574;50.534;8.500;2022-12-10T21:03:32;-0.3;99.9
53675;DHT22;39574;50.534;8.500;2022-12-10T21:08:45;-0.2;99.9
53675;DHT22;39574;50.534;8.500;2022-12-10T21:18:22;-0.0;99.9
53675;DHT22;39574;50.534;8.500;2022-12-10T21:23:36;0.0;99.9
53675;DHT22;39574;50.534;8.500;2022-12-10T21:33:06;0.1;99.9
53675;DHT22;39574;50.534;8.500;2022-12-10T21:38:16;-0.1;99.9
53675;DHT22;39574;50.534;8.500;2022-12-10T21:43:31;-0.1;99.9
53675;DHT22;39574;50.534;8.500;2022-12-10T21:48:33;-0.1;99.9
53675;DHT22;39574;50.534;8.500;2022-12-10T21:57:58;-0.2;99.9
53675;DHT22;39574;50.534;8.500;2022-12-10T22:03:08;-0.4;99.9
53675;DHT22;39574;50.534;8.500;2022-12-10T22:08:21;-0.4;99.9
53675;DHT22;39574;50.534;8.500;2022-12-10T22:18:03;-0.4;99.9
53675;DHT22;39574;50.534;8.500;2022-12-10T22:23:07;-0.4;99.9
53675;DHT22;39574;50.534;8.500;2022-12-10T22:28:17;-0.5;99.9
53675;DHT22;39574;50.534;8.500;2022-12-10T22:37:31;-0.6;99.9
53675;DHT22;39574;50.534;8.500;2022-12-10T22:42:56;-0.7;99.9
53675;DHT22;39574;50.534;8.500;2022-12-10T22:48:00;-0.8;99.9
53675;DHT22;39574;50.534;8.500;2022-12-10T22:53:10;-0.9;99.9
53675;DHT22;39574;50.534;8.500;2022-12-10T23:02:19;-0.9;99.9
53675;DHT22;39574;50.534;8.500;2022-12-10T23:07:36;-0.8;99.9
53675;DHT22;39574;50.534;8.500;2022-12-10T23:12:46;-0.7;99.9
53675;DHT22;39574;50.534;8.500;2022-12-10T23:17:49;-0.7;99.9
53675;DHT22;39574;50.534;8.500;2022-12-10T23:23:03;-0.7;99.9
53675;DHT22;39574;50.534;8.500;2022-12-10T23:32:40;-0.8;99.9
53675;DHT22;39574;50.534;8.500;2022-12-10T23:37:53;-0.9;99.9
53675;DHT22;39574;50.534;8.500;2022-12-10T23:42:54;-1.0;99.9
53675;DHT22;39574;50.534;8.500;2022-12-10T23:52:22;-1.0;99.9
53675;DHT22;39574;50.534;8.500;2022-12-10T23:57:32;-0.9;99.9
